Time;durP1;ratioP1;P1;durP2;ratioP2;P2;SDS_P1;SDS_P2;PMS_P1;PMS_P2;Temp;Humidity;BMP_temperature;BMP_pressure;BME280_temperature;BME280_humidity;BME280_pressure;Samples;Min_cycle;Max_cycle;Signal;HPM_P1;HPM_P2
2022/08/15 00:03:44;;;;;;;12.97;9.33;;;;;;;18.55;83.05;99381.97;29921717;29;97336;-64
2022/08/15 00:18:47;;;;;;;14.10;10.27;;;;;;;18.52;83.25;99379.78;29920720;29;96724;-60
2022/08/15 00:33:47;;;;;;;15.03;9.67;;;;;;;18.55;83.32;99376.59;29919322;29;97395;-66
2022/08/15 00:48:50;;;;;;;15.93;10.57;;;;;;;18.36;83.15;99386.75;29915813;29;103697;-64
2022/08/15 01:03:52;;;;;;;14.83;9.67;;;;;;;18.30;84.02;99401.19;29916223;29;96798;-65
2022/08/15 01:18:53;;;;;;;16.37;10.47;;;;;;;18.16;84.04;99379.09;29915278;29;96795;-64
2022/08/15 01:33:59;;;;;;;14.40;10.03;;;;;;;17.97;84.08;99361.47;29914264;29;96769;-64
2022/08/15 01:49:10;;;;;;;17.33;10.03;;;;;;;17.92;84.62;99354.13;29909420;29;98926;-65
2022/08/15 02:04:12;;;;;;;16.17;10.40;;;;;;;17.85;84.73;99351.53;29910315;29;96804;-64
2022/08/15 02:19:15;;;;;;;15.80;9.80;;;;;;;17.75;84.62;99356.69;29909895;29;96552;-64
2022/08/15 02:34:15;;;;;;;19.03;10.70;;;;;;;17.59;84.82;99353.69;29908915;29;96784;-64
2022/08/15 02:49:18;;;;;;;16.92;11.52;;;;;;;17.50;85.25;99343.53;29907377;29;97262;-62
2022/08/15 03:04:22;;;;;;;13.90;9.60;;;;;;;17.41;85.18;99325.03;29905871;29;96767;-64
2022/08/15 03:19:26;;;;;;;15.47;10.43;;;;;;;17.38;85.60;99325.50;29919764;29;96841;-62
2022/08/15 03:34:26;;;;;;;14.60;9.70;;;;;;;17.51;85.65;99305.59;29923742;29;97092;-61
2022/08/15 03:49:26;;;;;;;17.42;10.07;;;;;;;17.57;85.51;99310.00;29922223;29;101327;-63
2022/08/15 04:04:27;;;;;;;14.57;10.00;;;;;;;17.71;85.51;99312.44;29921732;29;97400;-59
2022/08/15 04:19:27;;;;;;;18.08;11.13;;;;;;;17.88;85.36;99310.63;29918794;29;96725;-64
2022/08/15 04:34:28;;;;;;;16.35;10.43;;;;;;;18.13;85.29;99304.13;29918000;29;96729;-60
2022/08/15 04:49:29;;;;;;;15.30;10.63;;;;;;;18.45;84.97;99295.50;29916282;29;96761;-62
2022/08/15 05:04:29;;;;;;;16.00;10.80;;;;;;;19.00;84.58;99312.03;29916132;29;96770;-63
2022/08/15 05:19:30;;;;;;;13.43;9.95;;;;;;;19.78;83.97;99312.00;29912707;29;96801;-65
2022/08/15 05:34:30;;;;;;;15.50;11.27;;;;;;;20.33;82.46;99301.25;29912910;29;96843;-63
2022/08/15 05:50:00;;;;;;;24.48;17.42;;;;;;;20.19;81.44;99306.22;29910424;29;102313;-64
2022/08/15 06:05:41;;;;;;;32.03;20.75;;;;;;;19.94;81.52;99319.25;29910134;29;97696;-60
2022/08/15 06:21:08;;;;;;;21.17;13.37;;;;;;;20.29;81.77;99326.06;29907262;29;96827;-63
2022/08/15 06:36:16;;;;;;;19.53;13.57;;;;;;;21.06;80.65;99330.50;29904214;29;96813;-65
2022/08/15 06:51:17;;;;;;;23.87;16.07;;;;;;;21.70;79.60;99324.09;29902756;29;97056;-65
2022/08/15 07:06:24;;;;;;;21.33;15.27;;;;;;;22.78;78.19;99331.66;29903137;29;96897;-64
2022/08/15 07:21:25;;;;;;;22.40;14.13;;;;;;;23.99;75.90;99330.81;29902908;29;96793;-64
2022/08/15 07:36:29;;;;;;;18.97;13.53;;;;;;;25.07;73.56;99331.94;29903523;29;97299;-64
2022/08/15 07:51:42;;;;;;;20.27;13.77;;;;;;;25.44;69.24;99330.50;29900279;29;97582;-62
2022/08/15 08:07:08;;;;;;;17.60;12.93;;;;;;;25.75;69.44;99315.66;29917644;29;97345;-65
2022/08/15 08:22:18;;;;;;;17.43;12.53;;;;;;;26.74;66.85;99324.09;29914474;29;97315;-64
2022/08/15 08:37:37;;;;;;;17.17;13.40;;;;;;;28.03;63.05;99316.97;29915802;29;97155;-62
2022/08/15 08:52:43;;;;;;;15.70;12.63;;;;;;;28.32;59.74;99327.53;29915302;29;97738;-60
2022/08/15 09:07:51;;;;;;;17.30;13.60;;;;;;;30.67;55.39;99320.47;29912929;29;96689;-61
2022/08/15 09:22:51;;;;;;;15.67;11.17;;;;;;;32.16;48.80;99313.50;29913569;29;97455;-63
2022/08/15 09:38:15;;;;;;;17.08;10.77;;;;;;;36.27;39.67;99294.88;29911549;29;96780;-61
2022/08/15 09:53:56;;;;;;;15.13;9.50;;;;;;;36.07;37.20;99288.53;29909748;29;97184;-61
2022/08/15 10:09:03;;;;;;;11.20;8.30;;;;;;;35.42;37.77;99260.22;29905959;29;97549;-61
2022/08/15 10:24:21;;;;;;;8.97;7.13;;;;;;;34.69;37.08;99243.03;29906956;29;96758;-60
2022/08/15 10:39:33;;;;;;;8.10;7.20;;;;;;;35.32;36.52;99243.38;29906806;29;97097;-61
2022/08/15 10:54:33;;;;;;;10.10;7.77;;;;;;;36.11;35.25;99233.19;29905152;29;96788;-63
2022/08/15 11:09:34;;;;;;;9.05;8.15;;;;;;;35.75;35.22;99217.41;29904326;29;96953;-60
2022/08/15 11:24:40;;;;;;;8.67;7.77;;;;;;;36.43;33.19;99217.19;29903785;29;97277;-65
2022/08/15 11:39:43;;;;;;;10.27;7.97;;;;;;;36.38;33.03;99215.50;29915992;29;97368;-62
2022/08/15 11:54:44;;;;;;;9.00;6.90;;;;;;;37.35;30.90;99209.97;29919584;29;97477;-60
2022/08/15 12:09:54;;;;;;;9.25;7.55;;;;;;;35.40;32.45;99209.97;29919654;29;96759;-60
2022/08/15 12:24:55;;;;;;;7.83;6.40;;;;;;;35.01;32.97;99201.53;29918602;29;97125;-61
2022/08/15 12:40:04;;;;;;;9.90;8.27;;;;;;;33.53;35.65;99188.44;29916841;29;96723;-60
2022/08/15 12:55:06;;;;;;;9.13;7.23;;;;;;;31.90;38.10;99185.03;29915555;29;97386;-63
2022/08/15 13:10:07;;;;;;;10.47;8.73;;;;;;;30.89;39.89;99170.16;29915083;29;97596;-61
2022/08/15 13:25:07;;;;;;;9.98;5.85;;;;;;;29.12;43.56;99170.66;29912956;29;96612;-59
2022/08/15 13:40:09;;;;;;;9.32;5.40;;;;;;;28.94;44.13;99155.28;29912168;29;97421;-61
2022/08/15 13:55:10;;;;;;;6.33;4.93;;;;;;;28.23;45.93;99145.94;29909612;29;97269;-61
2022/08/15 14:10:11;;;;;;;5.97;4.97;;;;;;;28.54;45.98;99145.09;29908238;29;97026;-63
2022/08/15 14:25:13;;;;;;;6.30;4.67;;;;;;;28.32;47.56;99124.06;29905604;29;97098;-62
2022/08/15 14:40:20;;;;;;;12.47;4.70;;;;;;;28.46;48.07;99113.84;29906321;29;97499;-63
2022/08/15 14:55:21;;;;;;;6.40;5.00;;;;;;;29.11;47.95;99111.44;29905163;29;97422;-59
2022/08/15 15:10:24;;;;;;;7.83;5.97;;;;;;;28.68;47.10;99107.50;29910728;29;97405;-64
2022/08/15 15:25:26;;;;;;;7.37;5.47;;;;;;;28.55;48.03;99105.63;29922578;29;96992;-64
2022/08/15 15:40:27;;;;;;;6.73;5.27;;;;;;;28.91;46.80;99114.81;29919546;29;97152;-61
2022/08/15 15:55:27;;;;;;;9.18;5.32;;;;;;;29.00;46.22;99116.44;29918090;29;97376;-62
2022/08/15 16:10:35;;;;;;;8.10;5.53;;;;;;;29.42;45.70;99104.25;29917530;29;96855;-60
2022/08/15 16:25:48;;;;;;;7.53;5.13;;;;;;;29.00;45.76;99116.44;29915173;29;97326;-59
2022/08/15 16:40:59;;;;;;;6.97;5.40;;;;;;;28.64;46.35;99111.19;29916520;29;96807;-60
2022/08/15 16:56:06;;;;;;;7.50;6.00;;;;;;;28.20;48.33;99108.25;29913094;29;97402;-65
2022/08/15 17:11:22;;;;;;;9.13;5.77;;;;;;;27.75;49.75;99102.78;29913933;29;96914;-63
2022/08/15 17:26:25;;;;;;;8.47;5.37;;;;;;;27.38;51.17;99110.22;29912063;29;96751;-63
2022/08/15 17:41:31;;;;;;;9.50;6.47;;;;;;;26.87;52.33;99133.97;29908102;29;96595;-60
2022/08/15 17:56:37;;;;;;;7.37;5.90;;;;;;;26.36;53.88;99142.03;29906899;29;96799;-60
2022/08/15 18:11:41;;;;;;;13.83;6.67;;;;;;;25.84;55.92;99155.69;29907187;29;96812;-61
2022/08/15 18:27:14;;;;;;;9.87;6.30;;;;;;;25.39;57.78;99177.88;29905912;29;96783;-61
2022/08/15 18:42:21;;;;;;;9.93;7.07;;;;;;;24.90;59.21;99177.09;29900437;29;97352;-60
2022/08/15 18:57:21;;;;;;;9.10;7.37;;;;;;;24.48;60.60;99182.16;29903070;29;98522;-65
2022/08/15 19:12:28;;;;;;;10.88;8.15;;;;;;;24.15;61.78;99195.53;29902270;29;96800;-59
2022/08/15 19:27:33;;;;;;;11.80;9.83;;;;;;;23.92;63.01;99210.66;29900181;29;96727;-60
2022/08/15 19:42:47;;;;;;;10.57;8.40;;;;;;;23.96;64.90;99210.88;29899353;29;96672;-59
2022/08/15 19:57:54;;;;;;;11.40;8.33;;;;;;;24.65;64.08;99217.13;29908167;29;96697;-67
2022/08/15 20:13:15;;;;;;;9.10;7.23;;;;;;;24.72;64.36;99224.16;29916469;29;97261;-58
2022/08/15 20:28:21;;;;;;;11.70;7.70;;;;;;;24.73;64.15;99223.03;29915502;29;97100;-59
2022/08/15 20:43:32;;;;;;;12.40;8.10;;;;;;;24.67;64.47;99231.28;29909758;29;97403;-61
2022/08/15 20:58:52;;;;;;;15.67;9.33;;;;;;;24.26;65.19;99239.78;29908015;29;96839;-57
2022/08/15 21:14:24;;;;;;;15.80;11.17;;;;;;;23.79;65.97;99268.34;29910266;29;97542;-59
2022/08/15 21:29:28;;;;;;;12.03;8.90;;;;;;;23.26;66.99;99290.59;29911561;29;96532;-63
2022/08/15 21:44:38;;;;;;;13.60;7.47;;;;;;;22.61;67.43;99315.66;29909530;29;97515;-61
2022/08/15 21:59:59;;;;;;;9.27;6.70;;;;;;;22.14;67.27;99309.31;29909087;29;97530;-58
2022/08/15 22:15:01;;;;;;;8.67;5.63;;;;;;;21.98;67.35;99308.50;29907863;29;96724;-61
2022/08/15 22:30:04;;;;;;;7.93;6.40;;;;;;;22.00;67.24;99297.38;29906830;29;97294;-65
2022/08/15 22:45:10;;;;;;;10.30;6.37;;;;;;;21.76;66.30;99289.69;29904135;29;96726;-58
2022/08/15 23:00:12;;;;;;;9.90;7.17;;;;;;;21.34;67.65;99279.75;29903630;29;96729;-64
2022/08/15 23:15:17;;;;;;;11.37;7.43;;;;;;;21.03;68.21;99268.78;29902645;29;97122;-62
2022/08/15 23:30:25;;;;;;;10.60;5.93;;;;;;;20.73;68.99;99275.63;29908100;29;96683;-59
2022/08/15 23:45:29;;;;;;;10.33;6.37;;;;;;;20.68;69.60;99280.94;29919617;29;97544;-58
